Polar Bear — ZMA2072 — position and weather

sailwx.info

Track history (hours):
 
Tides and Currents Weather Stations Pressure Air Temp Water Temp Dewpoint Dewpoint Depression Visibility Wind Speed Wind Dir Waves Ship Positions

Polar Bear

Last reported at 2017-Nov-15 07:11 UTC. Time now 2017-Nov-19 16:19 UTC.
Position N 32°39' W 117°21'.

Length 28 m; draft 2.3 m.

Type: Pleasure craft. MMSI: 512172000.

Date/timePositionNaut miles runAvg speedWind from/ knotsBaromVisibWave heightAir tempDewpointWater temp
2017-Nov-15 07:11N 32°39' W 117°21'2 9.1
2017-Nov-15 07:01N 32°40' W 117°23'5 9.4
2017-Nov-15 06:31N 32°43' W 117°27'5 9.5
2017-Nov-15 06:00N 32°46' W 117°31'5 9.5
2017-Nov-15 05:30N 32°50' W 117°35'5 9.7
2017-Nov-15 05:01N 32°53' W 117°39'5 9.6
2017-Nov-15 04:30N 32°57' W 117°43'5 9.3
2017-Nov-15 04:01N 33°00' W 117°46'5 9.4
2017-Nov-15 03:30N 33°04' W 117°50'5 9.7
2017-Nov-15 03:01N 33°08' W 117°53'9 9.4
2017-Nov-15 02:03N 33°12' W 118°03'2 9.6
2017-Nov-15 01:53N 33°14' W 118°04'5 9.4
2017-Nov-15 01:20N 33°17' W 118°08'6 9.1
2017-Nov-15 00:44N 33°21' W 118°13'2 9.4
2017-Nov-15 00:28N 33°23' W 118°15'5 9.7
2017-Nov-15 00:00N 33°26' W 118°19'5 9.9
2017-Nov-14 23:30N 33°28' W 118°24'5 9.5
2017-Nov-14 23:00N 33°31' W 118°29'5 9.4
2017-Nov-14 22:31N 33°34' W 118°33'5 9.4
2017-Nov-14 22:01N 33°36' W 118°38'4 8.5
2017-Nov-14 21:30N 33°39' W 118°42'4 7.9
2017-Nov-14 21:00N 33°41' W 118°46'4 6.8
2017-Nov-14 20:29N 33°43' W 118°50'4 8.6
2017-Nov-14 20:00N 33°46' W 118°54'5 9.0
2017-Nov-14 19:29N 33°49' W 118°58'4 9.2
2017-Nov-14 19:00N 33°51' W 119°02'5 9.3
2017-Nov-14 18:26N 33°55' W 119°07'4 9.4
2017-Nov-14 18:00N 33°57' W 119°11'4 8.8
2017-Nov-14 17:31N 33°59' W 119°16'4 7.4
2017-Nov-14 17:00N 34°01' W 119°20'4 7.5
2017-Nov-14 16:28N 34°03' W 119°24'3 7.4
2017-Nov-14 16:00N 34°04' W 119°28'4 7.3
2017-Nov-14 15:30N 34°05' W 119°32'4 7.6
2017-Nov-14 15:00N 34°06' W 119°37'4 7.8
2017-Nov-14 14:29N 34°06' W 119°41'4 7.9
2017-Nov-14 14:01N 34°07' W 119°46'6 8.2
2017-Nov-14 13:14N 34°09' W 119°53'2 8.2
2017-Nov-14 13:00N 34°09' W 119°55'5 8.2
2017-Nov-14 12:27N 34°11' W 120°01'4 7.9
2017-Nov-14 12:00N 34°12' W 120°05'4 7.9
2017-Nov-14 11:30N 34°12' W 120°09'4 8.0
2017-Nov-14 11:00N 34°13' W 120°14'5 8.4
2017-Nov-14 10:23N 34°14' W 120°20'3 8.2
2017-Nov-14 10:00N 34°14' W 120°24'5 9.9
2017-Nov-14 09:29N 34°16' W 120°30'510.4
2017-Nov-14 09:00N 34°18' W 120°36'510.5
2017-Nov-14 08:31N 34°20' W 120°41'510.4
2017-Nov-14 08:01N 34°22' W 120°47'5 9.9
2017-Nov-14 07:31N 34°23' W 120°53'4 8.7
2017-Nov-14 07:00N 34°27' W 120°56'4 8.8
2017-Nov-14 06:31N 34°31' W 120°59'4 8.6
2017-Nov-14 06:00N 34°34' W 121°01'4 8.5
2017-Nov-14 05:30N 34°38' W 121°04'4 8.7
2017-Nov-14 05:00N 34°42' W 121°07'4 8.2
2017-Nov-14 04:30N 34°45' W 121°09'4 7.9
2017-Nov-14 04:00N 34°49' W 121°12'4 7.5
2017-Nov-14 03:31N 34°52' W 121°15'4 7.0
2017-Nov-14 03:01N 34°54' W 121°17'3 6.8
2017-Nov-14 02:30N 34°57' W 121°20'4 7.0
2017-Nov-14 02:00N 34°60' W 121°23'4 7.3
2017-Nov-14 01:31N 35°03' W 121°26'4 7.3
2017-Nov-14 01:00N 35°06' W 121°28'3 7.1
2017-Nov-14 00:30N 35°09' W 121°30'4 7.4
2017-Nov-13 23:59N 35°12' W 121°33'4 7.3
2017-Nov-13 23:30N 35°15' W 121°35'4 7.5
2017-Nov-13 23:00N 35°18' W 121°38'12 7.8
2017-Nov-13 21:31N 35°28' W 121°46'170 8.7
2017-Nov-13 02:00N 37°54' W 123°34'4 8.4
2017-Nov-13 01:30N 37°58' W 123°36'4 8.4
2017-Nov-13 01:00N 38°02' W 123°39'4 8.4
2017-Nov-13 00:30N 38°06' W 123°41'4 8.5
2017-Nov-13 00:00N 38°09' W 123°43'4 8.8
2017-Nov-12 23:30N 38°13' W 123°45'5 9.1
2017-Nov-12 23:00N 38°18' W 123°48'4 9.0
2017-Nov-12 22:30N 38°22' W 123°50'4 8.6
2017-Nov-12 22:00N 38°25' W 123°53'4 8.8
2017-Nov-12 21:30N 38°30' W 123°55'425 8.6
2017-Nov-10 20:19N 45°31' W 125°11'15 8.6
2017-Nov-10 18:32N 45°46' W 125°13'0 8.4
2017-Nov-10 18:30N 45°46' W 125°13'4 8.7
2017-Nov-10 18:00N 45°51' W 125°13'4 8.9
2017-Nov-10 17:30N 45°55' W 125°12'4 9.0
2017-Nov-10 17:01N 45°59' W 125°12'5 9.1
2017-Nov-10 16:30N 46°04' W 125°12'4 9.0
2017-Nov-10 16:01N 46°09' W 125°12'4 9.0
2017-Nov-10 15:31N 46°13' W 125°11'4 8.9
2017-Nov-10 15:00N 46°17' W 125°10'5 9.0
2017-Nov-10 14:30N 46°22' W 125°09'4 8.7
2017-Nov-10 14:01N 46°26' W 125°09'4 8.5
2017-Nov-10 13:30N 46°30' W 125°08'4 8.3
2017-Nov-10 13:01N 46°34' W 125°06'4 8.4
2017-Nov-10 12:30N 46°39' W 125°05'4 8.5
2017-Nov-10 12:01N 46°43' W 125°04'4 8.4
2017-Nov-10 11:30N 46°47' W 125°03'5 8.5
2017-Nov-10 10:57N 46°52' W 125°02'85 9.0
2017-Nov-10 01:34N 48°16' W 124°53'1 8.1
2017-Nov-10 01:28N 48°17' W 124°52'4 8.0
2017-Nov-10 00:59N 48°20' W 124°49'4 8.4
2017-Nov-10 00:30N 48°24' W 124°46'4 8.1
2017-Nov-10 00:00N 48°24' W 124°41'510.2
2017-Nov-09 23:30N 48°23' W 124°33'5 9.7
2017-Nov-09 22:57N 48°21' W 124°25'4 9.7
2017-Nov-09 22:30N 48°20' W 124°19'1310.8
2017-Nov-09 21:16N 48°14' W 124°01'310.1
2017-Nov-09 20:58N 48°13' W 123°57'510.3
2017-Nov-09 20:28N 48°12' W 123°49'510.4
2017-Nov-09 20:00N 48°12' W 123°42'510.4
2017-Nov-09 19:30N 48°11' W 123°34'510.4
2017-Nov-09 19:00N 48°10' W 123°27'2 4.2
2017-Nov-09 18:30N 48°08' W 123°27'  
Track history (hours):
 
Tides and Currents Weather Stations Pressure Air Temp Water Temp Dewpoint Dewpoint Depression Visibility Wind Speed Wind Dir Waves Ship Positions

Polar Bear

Last reported at 2017-Nov-15 07:11 UTC. Time now 2017-Nov-19 16:19 UTC.
Position N 32°39' W 117°21'.

Length 28 m; draft 2.3 m.

Type: Pleasure craft. MMSI: 512172000.

Date/timePositionNaut miles runAvg speedWind from/ knotsBaromVisibWave heightAir tempDewpointWater temp
2017-Nov-15 07:11N 32°39' W 117°21'2 9.1
2017-Nov-15 07:01N 32°40' W 117°23'5 9.4
2017-Nov-15 06:31N 32°43' W 117°27'5 9.5
2017-Nov-15 06:00N 32°46' W 117°31'5 9.5
2017-Nov-15 05:30N 32°50' W 117°35'5 9.7
2017-Nov-15 05:01N 32°53' W 117°39'5 9.6
2017-Nov-15 04:30N 32°57' W 117°43'5 9.3
2017-Nov-15 04:01N 33°00' W 117°46'5 9.4
2017-Nov-15 03:30N 33°04' W 117°50'5 9.7
2017-Nov-15 03:01N 33°08' W 117°53'9 9.4
2017-Nov-15 02:03N 33°12' W 118°03'2 9.6
2017-Nov-15 01:53N 33°14' W 118°04'5 9.4
2017-Nov-15 01:20N 33°17' W 118°08'6 9.1
2017-Nov-15 00:44N 33°21' W 118°13'2 9.4
2017-Nov-15 00:28N 33°23' W 118°15'5 9.7
2017-Nov-15 00:00N 33°26' W 118°19'5 9.9
2017-Nov-14 23:30N 33°28' W 118°24'5 9.5
2017-Nov-14 23:00N 33°31' W 118°29'5 9.4
2017-Nov-14 22:31N 33°34' W 118°33'5 9.4
2017-Nov-14 22:01N 33°36' W 118°38'4 8.5
2017-Nov-14 21:30N 33°39' W 118°42'4 7.9
2017-Nov-14 21:00N 33°41' W 118°46'4 6.8
2017-Nov-14 20:29N 33°43' W 118°50'4 8.6
2017-Nov-14 20:00N 33°46' W 118°54'5 9.0
2017-Nov-14 19:29N 33°49' W 118°58'4 9.2
2017-Nov-14 19:00N 33°51' W 119°02'5 9.3
2017-Nov-14 18:26N 33°55' W 119°07'4 9.4
2017-Nov-14 18:00N 33°57' W 119°11'4 8.8
2017-Nov-14 17:31N 33°59' W 119°16'4 7.4
2017-Nov-14 17:00N 34°01' W 119°20'4 7.5
2017-Nov-14 16:28N 34°03' W 119°24'3 7.4
2017-Nov-14 16:00N 34°04' W 119°28'4 7.3
2017-Nov-14 15:30N 34°05' W 119°32'4 7.6
2017-Nov-14 15:00N 34°06' W 119°37'4 7.8
2017-Nov-14 14:29N 34°06' W 119°41'4 7.9
2017-Nov-14 14:01N 34°07' W 119°46'6 8.2
2017-Nov-14 13:14N 34°09' W 119°53'2 8.2
2017-Nov-14 13:00N 34°09' W 119°55'5 8.2
2017-Nov-14 12:27N 34°11' W 120°01'4 7.9
2017-Nov-14 12:00N 34°12' W 120°05'4 7.9
2017-Nov-14 11:30N 34°12' W 120°09'4 8.0
2017-Nov-14 11:00N 34°13' W 120°14'5 8.4
2017-Nov-14 10:23N 34°14' W 120°20'3 8.2
2017-Nov-14 10:00N 34°14' W 120°24'5 9.9
2017-Nov-14 09:29N 34°16' W 120°30'510.4
2017-Nov-14 09:00N 34°18' W 120°36'510.5
2017-Nov-14 08:31N 34°20' W 120°41'510.4
2017-Nov-14 08:01N 34°22' W 120°47'5 9.9
2017-Nov-14 07:31N 34°23' W 120°53'4 8.7
2017-Nov-14 07:00N 34°27' W 120°56'4 8.8
2017-Nov-14 06:31N 34°31' W 120°59'4 8.6
2017-Nov-14 06:00N 34°34' W 121°01'4 8.5
2017-Nov-14 05:30N 34°38' W 121°04'4 8.7
2017-Nov-14 05:00N 34°42' W 121°07'4 8.2
2017-Nov-14 04:30N 34°45' W 121°09'4 7.9
2017-Nov-14 04:00N 34°49' W 121°12'4 7.5
2017-Nov-14 03:31N 34°52' W 121°15'4 7.0
2017-Nov-14 03:01N 34°54' W 121°17'3 6.8
2017-Nov-14 02:30N 34°57' W 121°20'4 7.0
2017-Nov-14 02:00N 34°60' W 121°23'4 7.3
2017-Nov-14 01:31N 35°03' W 121°26'4 7.3
2017-Nov-14 01:00N 35°06' W 121°28'3 7.1
2017-Nov-14 00:30N 35°09' W 121°30'4 7.4
2017-Nov-13 23:59N 35°12' W 121°33'4 7.3
2017-Nov-13 23:30N 35°15' W 121°35'4 7.5
2017-Nov-13 23:00N 35°18' W 121°38'12 7.8
2017-Nov-13 21:31N 35°28' W 121°46'170 8.7
2017-Nov-13 02:00N 37°54' W 123°34'4 8.4
2017-Nov-13 01:30N 37°58' W 123°36'4 8.4
2017-Nov-13 01:00N 38°02' W 123°39'4 8.4
2017-Nov-13 00:30N 38°06' W 123°41'4 8.5
2017-Nov-13 00:00N 38°09' W 123°43'4 8.8
2017-Nov-12 23:30N 38°13' W 123°45'5 9.1
2017-Nov-12 23:00N 38°18' W 123°48'4 9.0
2017-Nov-12 22:30N 38°22' W 123°50'4 8.6
2017-Nov-12 22:00N 38°25' W 123°53'4 8.8
2017-Nov-12 21:30N 38°30' W 123°55'425 8.6
2017-Nov-10 20:19N 45°31' W 125°11'15 8.6
2017-Nov-10 18:32N 45°46' W 125°13'0 8.4
2017-Nov-10 18:30N 45°46' W 125°13'4 8.7
2017-Nov-10 18:00N 45°51' W 125°13'4 8.9
2017-Nov-10 17:30N 45°55' W 125°12'4 9.0
2017-Nov-10 17:01N 45°59' W 125°12'5 9.1
2017-Nov-10 16:30N 46°04' W 125°12'4 9.0
2017-Nov-10 16:01N 46°09' W 125°12'4 9.0
2017-Nov-10 15:31N 46°13' W 125°11'4 8.9
2017-Nov-10 15:00N 46°17' W 125°10'5 9.0
2017-Nov-10 14:30N 46°22' W 125°09'4 8.7
2017-Nov-10 14:01N 46°26' W 125°09'4 8.5
2017-Nov-10 13:30N 46°30' W 125°08'4 8.3
2017-Nov-10 13:01N 46°34' W 125°06'4 8.4
2017-Nov-10 12:30N 46°39' W 125°05'4 8.5
2017-Nov-10 12:01N 46°43' W 125°04'4 8.4
2017-Nov-10 11:30N 46°47' W 125°03'5 8.5
2017-Nov-10 10:57N 46°52' W 125°02'85 9.0
2017-Nov-10 01:34N 48°16' W 124°53'1 8.1
2017-Nov-10 01:28N 48°17' W 124°52'4 8.0
2017-Nov-10 00:59N 48°20' W 124°49'4 8.4
2017-Nov-10 00:30N 48°24' W 124°46'4 8.1
2017-Nov-10 00:00N 48°24' W 124°41'510.2
2017-Nov-09 23:30N 48°23' W 124°33'5 9.7
2017-Nov-09 22:57N 48°21' W 124°25'4 9.7
2017-Nov-09 22:30N 48°20' W 124°19'1310.8
2017-Nov-09 21:16N 48°14' W 124°01'310.1
2017-Nov-09 20:58N 48°13' W 123°57'510.3
2017-Nov-09 20:28N 48°12' W 123°49'510.4
2017-Nov-09 20:00N 48°12' W 123°42'510.4
2017-Nov-09 19:30N 48°11' W 123°34'510.4
2017-Nov-09 19:00N 48°10' W 123°27'2 4.2
2017-Nov-09 18:30N 48°08' W 123°27'  

Dump ship's entire track history